Terminal Aerodrome Forecast
Issued by NWS Wichita, KS

Home | Current Version | Previous Version | Graphics & Text | Print | Product List | Glossary On
Versions: 1 2 3 4 5 6 7 8 9 10 11 12 13 14 15
000
FTUS43 KICT 131700
TAFICT
TAF
KICT 131720Z 1318/1418 12008KT P6SM FEW060
     FM132000 16014KT P6SM BKN060
     FM140400 16007KT P6SM SCT250
     FM141500 17015KT P6SM SCT250=

USA.gov is the U.S. government's official web portal to all federal, state and local government web resources and services.